createdAt,value
2023-04-15T00:01:45.092Z,59.25
2023-04-15T00:04:13.014Z,58.96
2023-04-15T00:06:40.992Z,59.22
2023-04-15T00:09:08.866Z,59.57
2023-04-15T00:11:38.021Z,59.55
2023-04-15T00:14:06.236Z,59.67
2023-04-15T00:16:34.046Z,59.90
2023-04-15T00:19:01.954Z,60.04
2023-04-15T00:21:30.060Z,59.87
2023-04-15T00:23:57.867Z,60.10
2023-04-15T00:26:25.586Z,60.46
2023-04-15T00:28:55.069Z,60.68
2023-04-15T00:31:23.108Z,60.57
2023-04-15T00:33:51.060Z,60.84
2023-04-15T00:36:18.835Z,60.96
2023-04-15T00:38:46.562Z,61.37
2023-04-15T00:41:14.573Z,61.03
2023-04-15T00:43:42.374Z,61.55
2023-04-15T00:46:16.898Z,61.55
2023-04-15T00:48:45.086Z,61.68
2023-04-15T00:51:13.195Z,61.91
2023-04-15T00:53:41.133Z,62.08
2023-04-15T00:56:09.096Z,62.03
2023-04-15T00:58:37.120Z,62.49
2023-04-15T01:01:05.573Z,62.65
2023-04-15T01:03:35.374Z,62.53
2023-04-15T01:06:04.412Z,62.75
2023-04-15T01:08:32.574Z,62.81
2023-04-15T01:11:03.490Z,63.07
2023-04-15T01:13:32.320Z,63.37
2023-04-15T01:16:00.236Z,63.19
2023-04-15T01:18:28.570Z,63.22
2023-04-15T01:20:58.192Z,63.34
2023-04-15T01:23:26.310Z,63.46
2023-04-15T01:25:57.349Z,63.66
2023-04-15T01:28:25.409Z,63.67
2023-04-15T01:31:07.484Z,64.16
2023-04-15T01:33:38.542Z,64.40
2023-04-15T01:36:10.003Z,64.47
2023-04-15T01:38:38.438Z,64.55
2023-04-15T01:41:08.225Z,65.05
2023-04-15T01:43:37.234Z,65.54
2023-04-15T01:46:05.143Z,65.58
2023-04-15T01:48:33.466Z,65.84
2023-04-15T01:51:01.431Z,66.14
2023-04-15T01:53:29.444Z,66.59
2023-04-15T01:55:57.236Z,66.25
2023-04-15T01:58:27.182Z,66.56
2023-04-15T02:00:55.447Z,66.76
2023-04-15T02:03:23.639Z,67.02
2023-04-15T02:05:53.578Z,67.16
2023-04-15T02:08:22.414Z,67.31
2023-04-15T02:10:50.343Z,67.23
2023-04-15T02:13:18.167Z,67.56
2023-04-15T02:15:50.033Z,67.78
2023-04-15T02:18:20.501Z,68.01
2023-04-15T02:20:48.811Z,68.32
2023-04-15T02:23:16.814Z,68.23
2023-04-15T02:25:53.432Z,68.78
2023-04-15T02:28:22.179Z,69.14
2023-04-15T02:30:53.327Z,69.28
2023-04-15T02:33:22.518Z,69.21
2023-04-15T02:35:50.834Z,69.45
2023-04-15T02:38:18.638Z,69.91
2023-04-15T02:40:46.618Z,69.72
2023-04-15T02:43:14.385Z,70.08
2023-04-15T02:45:43.520Z,70.45
2023-04-15T02:48:12.784Z,70.68
2023-04-15T02:50:40.803Z,70.79
2023-04-15T02:53:10.503Z,70.62
2023-04-15T02:55:38.248Z,70.86
2023-04-15T02:58:06.097Z,70.93
2023-04-15T03:00:34.009Z,71.26
2023-04-15T03:03:05.640Z,71.32
2023-04-15T03:05:34.971Z,71.57
2023-04-15T03:08:05.299Z,72.01
2023-04-15T03:10:33.054Z,71.83
2023-04-15T03:13:02.673Z,72.46
2023-04-15T03:15:30.773Z,73.00
2023-04-15T03:17:58.663Z,73.29
2023-04-15T03:20:26.505Z,73.54
2023-04-15T03:22:55.870Z,73.94
2023-04-15T03:25:25.096Z,73.97
2023-04-15T03:27:52.919Z,74.46
2023-04-15T03:30:20.759Z,74.52
2023-04-15T03:32:48.575Z,74.49
2023-04-15T03:35:17.097Z,74.65
2023-04-15T03:37:44.904Z,74.62
2023-04-15T03:40:14.302Z,74.56
2023-04-15T03:42:42.098Z,74.73
2023-04-15T03:45:10.786Z,74.91
2023-04-15T03:47:38.643Z,74.98
2023-04-15T03:50:07.492Z,74.78
2023-04-15T03:52:35.435Z,75.31
2023-04-15T03:55:03.309Z,75.54
2023-04-15T03:57:32.416Z,75.57
2023-04-15T04:00:00.224Z,75.52
2023-04-15T04:02:28.297Z,75.53
2023-04-15T04:04:56.294Z,75.55
2023-04-15T04:07:25.479Z,76.06
2023-04-15T04:09:53.352Z,76.04
2023-04-15T04:12:21.087Z,76.37
2023-04-15T04:14:50.453Z,76.51
2023-04-15T04:17:18.319Z,76.64
2023-04-15T04:19:46.398Z,76.63
2023-04-15T04:22:14.133Z,76.84
2023-04-15T04:24:41.914Z,77.01
2023-04-15T04:27:09.666Z,77.20
2023-04-15T04:29:37.406Z,77.36
2023-04-15T04:32:07.026Z,77.48
2023-04-15T04:34:34.838Z,77.55
2023-04-15T04:37:02.641Z,77.80
2023-04-15T04:39:30.508Z,78.29
2023-04-15T04:41:58.278Z,78.12
2023-04-15T04:44:26.153Z,78.06
2023-04-15T04:46:54.095Z,78.30
2023-04-15T04:49:23.197Z,78.86
2023-04-15T04:51:51.449Z,79.12
2023-04-15T04:54:19.228Z,79.30
2023-04-15T04:56:47.066Z,79.46
2023-04-15T04:59:14.828Z,79.76
2023-04-15T05:01:42.887Z,79.91
2023-04-15T05:04:10.786Z,80.34
2023-04-15T05:06:39.961Z,80.76
2023-04-15T05:09:08.105Z,80.87
2023-04-15T05:11:35.951Z,80.87
2023-04-15T05:14:03.713Z,81.15
2023-04-15T05:16:31.514Z,80.88
2023-04-15T05:18:59.499Z,81.15
2023-04-15T05:21:27.662Z,81.27
2023-04-15T05:23:56.787Z,81.58
2023-04-15T05:26:24.896Z,81.51
2023-04-15T05:28:52.658Z,81.71
2023-04-15T05:31:20.994Z,82.04
2023-04-15T05:33:48.841Z,82.50
2023-04-15T05:36:16.673Z,82.76
2023-04-15T05:38:44.438Z,83.08
2023-04-15T05:41:16.586Z,83.30
2023-04-15T05:43:46.473Z,83.63
2023-04-15T05:46:14.304Z,83.72
2023-04-15T05:48:42.152Z,83.62
2023-04-15T05:51:10.551Z,83.74
2023-04-15T05:53:38.355Z,84.06
2023-04-15T05:56:06.557Z,84.20
2023-04-15T05:58:35.756Z,83.90
2023-04-15T06:01:04.002Z,84.13
2023-04-15T06:03:31.931Z,84.37
2023-04-15T06:06:00.870Z,84.33
2023-04-15T06:08:28.869Z,84.39
2023-04-15T06:10:56.749Z,84.52
2023-04-15T06:13:24.561Z,84.60
2023-04-15T06:15:54.076Z,84.67
2023-04-15T06:18:22.236Z,84.69
2023-04-15T06:20:50.061Z,84.89
2023-04-15T06:23:17.874Z,84.88
2023-04-15T06:25:45.773Z,85.16
2023-04-15T06:28:13.676Z,85.47
2023-04-15T06:30:41.516Z,85.59
2023-04-15T06:33:10.785Z,85.79
2023-04-15T06:35:39.172Z,85.68
2023-04-15T06:38:07.079Z,85.54
2023-04-15T06:40:35.986Z,85.27
2023-04-15T06:43:04.830Z,84.92
2023-04-15T06:45:32.665Z,84.39
2023-04-15T06:48:00.707Z,83.27
2023-04-15T06:50:29.926Z,82.17
2023-04-15T06:52:58.241Z,81.37
2023-04-15T06:55:26.003Z,80.40
2023-04-15T06:57:53.765Z,79.45
2023-04-15T07:00:21.588Z,78.97
2023-04-15T07:02:52.786Z,77.03
2023-04-15T07:05:20.715Z,75.58
2023-04-15T07:07:50.210Z,74.36
2023-04-15T07:10:18.256Z,73.53
2023-04-15T07:12:46.179Z,72.52
2023-04-15T07:15:13.953Z,71.59
2023-04-15T07:17:43.142Z,71.37
2023-04-15T07:20:11.798Z,70.60
2023-04-15T07:22:39.732Z,70.37
2023-04-15T07:25:10.131Z,69.93
2023-04-15T07:27:37.943Z,69.73
2023-04-15T07:30:06.786Z,69.52
2023-04-15T07:32:34.627Z,68.95
2023-04-15T07:35:03.707Z,68.60
2023-04-15T07:37:31.532Z,68.50
2023-04-15T07:39:59.270Z,67.96
2023-04-15T07:42:29.226Z,67.43
2023-04-15T07:44:57.748Z,66.01
2023-04-15T07:47:25.761Z,64.31
2023-04-15T07:49:54.064Z,62.19
2023-04-15T07:52:22.286Z,60.89
2023-04-15T07:54:50.036Z,59.62
2023-04-15T07:57:18.377Z,58.34
2023-04-15T07:59:47.501Z,56.53
2023-04-15T08:02:15.463Z,56.63
2023-04-15T08:04:43.589Z,56.01
2023-04-15T08:07:11.780Z,55.35
2023-04-15T08:09:39.532Z,55.09
2023-04-15T08:12:09.439Z,54.58
2023-04-15T08:14:37.239Z,54.06
2023-04-15T08:17:06.687Z,52.91
2023-04-15T08:19:34.501Z,52.21
2023-04-15T08:22:02.405Z,51.41
2023-04-15T08:24:31.476Z,50.37
2023-04-15T08:26:59.889Z,49.89
2023-04-15T08:29:27.757Z,47.78
2023-04-15T08:31:55.737Z,47.55
2023-04-15T08:34:25.272Z,47.52
2023-04-15T08:36:53.085Z,47.36
2023-04-15T08:39:20.997Z,47.12
2023-04-15T08:41:52.748Z,45.83
2023-04-15T08:44:22.129Z,46.21
2023-04-15T08:46:50.516Z,46.45
2023-04-15T08:49:20.232Z,46.20
2023-04-15T08:51:50.231Z,45.79
2023-04-15T08:54:18.074Z,46.20
2023-04-15T08:56:46.248Z,46.03
2023-04-15T08:59:14.904Z,45.98
2023-04-15T09:01:42.954Z,46.04
2023-04-15T09:04:12.630Z,46.32
2023-04-15T09:06:41.601Z,45.42
2023-04-15T09:09:10.748Z,45.06
2023-04-15T09:11:38.629Z,44.94
2023-04-15T09:14:06.426Z,44.64
2023-04-15T09:16:57.752Z,45.10
2023-04-15T09:19:26.260Z,45.29
2023-04-15T09:21:58.411Z,44.87
2023-04-15T09:24:38.380Z,43.77
2023-04-15T09:27:06.839Z,42.84
2023-04-15T09:29:34.831Z,43.28
2023-04-15T09:32:13.537Z,43.67
2023-04-15T09:34:41.341Z,44.51
2023-04-15T09:37:10.873Z,43.91
2023-04-15T09:39:51.007Z,43.65
2023-04-15T09:42:24.345Z,43.56
2023-04-15T09:44:52.921Z,44.44
2023-04-15T09:47:38.795Z,44.41
2023-04-15T09:50:07.600Z,44.01
2023-04-15T09:52:43.005Z,43.72
2023-04-15T09:55:13.008Z,44.13
2023-04-15T09:57:42.417Z,44.21
2023-04-15T10:00:11.373Z,44.45
2023-04-15T10:02:40.955Z,44.28
2023-04-15T10:05:11.917Z,44.43
2023-04-15T10:07:41.039Z,44.85
2023-04-15T10:10:09.595Z,44.75
2023-04-15T10:12:42.110Z,45.17
2023-04-15T10:15:17.530Z,44.47
2023-04-15T10:17:46.271Z,43.26
2023-04-15T10:20:15.962Z,42.51
2023-04-15T10:22:46.381Z,42.73
2023-04-15T10:25:16.394Z,42.62
2023-04-15T10:27:46.461Z,42.71
2023-04-15T10:30:14.671Z,43.33
2023-04-15T10:32:43.273Z,43.23
2023-04-15T10:35:12.173Z,42.63
2023-04-15T10:37:40.322Z,42.47
2023-04-15T10:40:29.139Z,42.89
2023-04-15T10:42:59.448Z,42.80
2023-04-15T10:45:28.839Z,42.04
2023-04-15T10:47:58.086Z,41.67
2023-04-15T10:50:29.733Z,41.79
2023-04-15T10:52:58.362Z,40.71
2023-04-15T10:55:27.802Z,41.14
2023-04-15T10:57:56.879Z,41.36
2023-04-15T11:00:29.710Z,42.05
2023-04-15T11:03:01.194Z,41.86
2023-04-15T11:05:50.387Z,41.95
2023-04-15T11:08:18.314Z,41.81
2023-04-15T11:10:55.243Z,42.14
2023-04-15T11:13:31.689Z,42.60
2023-04-15T11:16:02.566Z,42.66
2023-04-15T11:18:36.299Z,42.42
2023-04-15T11:21:06.793Z,41.17
2023-04-15T11:23:38.021Z,41.80
2023-04-15T11:26:09.535Z,42.32
2023-04-15T11:28:39.164Z,43.43
2023-04-15T11:31:11.813Z,42.81
2023-04-15T11:33:46.899Z,43.10
2023-04-15T11:36:14.887Z,42.80
2023-04-15T11:38:47.454Z,43.03
2023-04-15T11:41:15.454Z,43.76
2023-04-15T11:43:43.795Z,42.61
2023-04-15T11:46:13.036Z,42.30
2023-04-15T11:48:44.328Z,42.04
2023-04-15T11:51:13.145Z,42.20
2023-04-15T11:53:42.486Z,41.40
2023-04-15T11:56:11.721Z,40.77
2023-04-15T11:58:40.193Z,40.16
2023-04-15T12:01:08.359Z,40.68
2023-04-15T12:03:42.462Z,41.59
2023-04-15T12:06:17.053Z,41.23
2023-04-15T12:09:02.868Z,40.83
2023-04-15T12:11:33.306Z,41.05
2023-04-15T12:14:05.856Z,40.13
2023-04-15T12:16:37.261Z,39.64
2023-04-15T12:19:24.197Z,39.79
2023-04-15T12:21:53.452Z,39.51
2023-04-15T12:24:23.684Z,39.49
2023-04-15T12:26:53.398Z,39.99
2023-04-15T12:29:22.180Z,40.30
2023-04-15T12:31:52.376Z,40.13
2023-04-15T12:34:29.430Z,40.92
2023-04-15T12:36:58.906Z,41.15
2023-04-15T12:39:29.978Z,40.94
2023-04-15T12:41:58.772Z,41.45
2023-04-15T12:44:27.146Z,41.90
2023-04-15T12:46:55.513Z,42.12
2023-04-15T12:49:25.498Z,42.82
2023-04-15T12:51:55.339Z,42.96
2023-04-15T12:54:23.516Z,44.02
2023-04-15T12:56:52.295Z,43.47
2023-04-15T12:59:20.125Z,43.40
2023-04-15T13:01:48.825Z,43.24
2023-04-15T13:04:17.619Z,43.38
2023-04-15T13:06:46.774Z,42.97
2023-04-15T13:09:14.598Z,43.15
2023-04-15T13:11:42.559Z,43.89
2023-04-15T13:14:11.446Z,45.04
2023-04-15T13:16:39.834Z,46.05
2023-04-15T13:19:07.977Z,47.10
2023-04-15T13:21:36.420Z,47.45
2023-04-15T13:24:07.204Z,47.69
2023-04-15T13:26:34.987Z,47.05
2023-04-15T13:29:02.896Z,48.28
2023-04-15T13:31:30.741Z,48.78
2023-04-15T13:33:58.553Z,49.18
2023-04-15T13:36:26.412Z,48.25
2023-04-15T13:38:54.215Z,49.49
2023-04-15T13:41:23.364Z,50.06
2023-04-15T13:43:51.193Z,50.17
2023-04-15T13:46:19.200Z,50.58
2023-04-15T13:48:46.993Z,50.64
2023-04-15T13:51:14.804Z,51.12
2023-04-15T13:53:42.567Z,51.19
2023-04-15T13:56:10.797Z,51.25
2023-04-15T13:58:41.506Z,51.46
2023-04-15T14:01:09.511Z,52.05
2023-04-15T14:03:37.490Z,51.51
2023-04-15T14:06:06.171Z,51.29
2023-04-15T14:08:34.189Z,51.61
2023-04-15T14:11:02.063Z,51.68
2023-04-15T14:13:30.076Z,51.70
2023-04-15T14:15:59.380Z,51.36
2023-04-15T14:18:27.283Z,52.21
2023-04-15T14:20:55.541Z,52.51
2023-04-15T14:23:23.426Z,52.60
2023-04-15T14:25:51.718Z,53.53
2023-04-15T14:28:19.483Z,55.62
2023-04-15T14:30:47.459Z,56.73
2023-04-15T14:33:16.770Z,57.87
2023-04-15T14:35:44.574Z,58.55
2023-04-15T14:38:12.354Z,58.21
2023-04-15T14:40:40.255Z,58.86
2023-04-15T14:43:08.126Z,58.99
2023-04-15T14:45:36.327Z,59.01
2023-04-15T14:48:04.514Z,59.22
2023-04-15T14:50:33.740Z,58.52
2023-04-15T14:53:01.488Z,57.98
2023-04-15T14:55:29.272Z,57.32
2023-04-15T14:57:57.059Z,57.23
2023-04-15T15:00:24.822Z,57.02
2023-04-15T15:02:52.699Z,57.82
2023-04-15T15:05:20.812Z,58.49
2023-04-15T15:07:49.977Z,59.48
2023-04-15T15:10:17.929Z,59.08
2023-04-15T15:13:06.798Z,59.39
2023-04-15T15:15:34.889Z,59.55
2023-04-15T15:18:03.238Z,60.12
2023-04-15T15:20:31.701Z,60.72
2023-04-15T15:23:01.248Z,60.78
2023-04-15T15:25:29.771Z,61.30
2023-04-15T15:27:58.971Z,60.63
2023-04-15T15:30:27.010Z,61.23
2023-04-15T15:32:54.953Z,61.83
2023-04-15T15:35:23.627Z,61.76
2023-04-15T15:37:51.574Z,61.61
2023-04-15T15:40:20.762Z,62.03
2023-04-15T15:42:49.915Z,62.34
2023-04-15T15:45:18.304Z,62.87
2023-04-15T15:47:46.291Z,63.51
2023-04-15T15:50:14.792Z,63.50
2023-04-15T15:52:42.605Z,63.24
2023-04-15T15:55:10.709Z,64.21
2023-04-15T15:57:39.967Z,64.17
2023-04-15T16:00:12.712Z,64.14
2023-04-15T16:05:12.024Z,63.47
2023-04-15T16:07:39.797Z,64.53
2023-04-15T16:10:08.676Z,64.85
2023-04-15T16:12:36.601Z,65.02
2023-04-15T16:15:06.721Z,64.78
2023-04-15T16:17:34.737Z,65.01
2023-04-15T16:20:05.406Z,65.95
2023-04-15T16:22:33.657Z,66.25
2023-04-15T16:25:02.111Z,66.56
2023-04-15T16:27:29.976Z,66.24
2023-04-15T16:29:57.723Z,66.86
2023-04-15T16:32:27.982Z,67.07
2023-04-15T16:34:56.160Z,66.98
2023-04-15T16:37:24.053Z,67.17
2023-04-15T16:39:51.847Z,67.93
2023-04-15T16:42:19.752Z,67.56
2023-04-15T16:44:47.509Z,68.39
2023-04-15T16:47:15.307Z,68.42
2023-04-15T16:49:44.434Z,68.22
2023-04-15T16:52:12.218Z,69.25
2023-04-15T16:54:41.418Z,69.52
2023-04-15T16:57:09.370Z,69.45
2023-04-15T16:59:37.230Z,69.27
2023-04-15T17:02:05.185Z,69.35
2023-04-15T17:04:33.392Z,69.32
2023-04-15T17:07:02.713Z,69.49
2023-04-15T17:09:30.477Z,70.13
2023-04-15T17:11:58.586Z,70.52
2023-04-15T17:14:26.422Z,69.95
2023-04-15T17:16:54.275Z,69.93
2023-04-15T17:19:22.252Z,69.67
2023-04-15T17:21:50.100Z,70.36
2023-04-15T17:24:19.297Z,70.17
2023-04-15T17:26:47.870Z,70.46
2023-04-15T17:29:15.591Z,70.96
2023-04-15T17:31:43.494Z,70.72
2023-04-15T17:34:12.640Z,71.31
2023-04-15T17:36:41.795Z,71.46
2023-04-15T17:39:09.593Z,71.90
2023-04-15T17:41:38.788Z,72.51
2023-04-15T17:44:06.783Z,72.19
2023-04-15T17:46:34.933Z,72.37
2023-04-15T17:49:03.343Z,72.65
2023-04-15T17:51:31.738Z,72.77
2023-04-15T17:54:08.076Z,72.94
2023-04-15T17:56:35.911Z,73.11
2023-04-15T17:59:05.009Z,73.05
2023-04-15T18:01:32.849Z,73.02
2023-04-15T18:04:00.842Z,73.03
2023-04-15T18:06:28.739Z,73.53
2023-04-15T18:08:56.589Z,73.33
2023-04-15T18:11:24.395Z,73.35
2023-04-15T18:13:52.231Z,73.69
2023-04-15T18:16:21.581Z,73.57
2023-04-15T18:18:49.394Z,73.65
2023-04-15T18:21:17.146Z,73.11
2023-04-15T18:23:45.060Z,73.00
2023-04-15T18:26:12.802Z,72.93
2023-04-15T18:28:40.656Z,72.89
2023-04-15T18:31:08.488Z,73.13
2023-04-15T18:33:37.657Z,73.57
2023-04-15T18:36:05.618Z,73.48
2023-04-15T18:38:33.385Z,74.07
2023-04-15T18:41:01.312Z,73.88
2023-04-15T18:43:29.070Z,74.44
2023-04-15T18:45:56.958Z,74.99
2023-04-15T18:48:24.823Z,74.98
2023-04-15T18:50:54.345Z,75.76
2023-04-15T18:53:22.497Z,76.17
2023-04-15T18:55:50.466Z,76.40
2023-04-15T18:58:18.361Z,76.82
2023-04-15T19:00:46.249Z,76.73
2023-04-15T19:03:14.158Z,78.29
2023-04-15T19:05:41.969Z,78.90
2023-04-15T19:08:11.721Z,78.91
2023-04-15T19:10:39.691Z,79.03
2023-04-15T19:13:07.528Z,79.89
2023-04-15T19:15:35.352Z,79.92
2023-04-15T19:18:05.296Z,79.95
2023-04-15T19:20:36.644Z,80.29
2023-04-15T19:23:06.163Z,80.39
2023-04-15T19:25:35.351Z,80.81
2023-04-15T19:28:03.218Z,81.73
2023-04-15T19:30:32.370Z,82.33
2023-04-15T19:33:00.317Z,82.69
2023-04-15T19:35:28.189Z,83.05
2023-04-15T19:37:56.037Z,83.07
2023-04-15T19:40:23.850Z,83.32
2023-04-15T19:42:53.065Z,83.34
2023-04-15T19:45:20.991Z,83.57
2023-04-15T19:47:49.067Z,84.30
2023-04-15T19:50:17.020Z,84.43
2023-04-15T19:52:44.797Z,85.09
2023-04-15T19:55:12.592Z,84.96
2023-04-15T19:57:40.823Z,85.33
2023-04-15T20:00:11.356Z,85.06
2023-04-15T20:02:39.241Z,84.97
2023-04-15T20:05:09.824Z,85.23
2023-04-15T20:07:39.607Z,85.04
2023-04-15T20:10:12.134Z,84.83
2023-04-15T20:12:50.394Z,85.51
2023-04-15T20:15:23.887Z,85.31
2023-04-15T20:17:52.125Z,85.46
2023-04-15T20:20:20.366Z,85.51
2023-04-15T20:22:48.186Z,86.04
2023-04-15T20:25:16.238Z,85.97
2023-04-15T20:27:44.030Z,86.24
2023-04-15T20:30:12.462Z,85.63
2023-04-15T20:32:41.633Z,85.84
2023-04-15T20:35:09.637Z,85.02
2023-04-15T20:37:40.336Z,85.31
2023-04-15T20:40:09.266Z,85.61
2023-04-15T20:42:37.033Z,86.16
2023-04-15T20:45:06.969Z,86.11
2023-04-15T20:47:34.802Z,85.80
2023-04-15T20:50:03.970Z,86.16
2023-04-15T20:52:31.831Z,86.02
2023-04-15T20:54:59.596Z,86.27
2023-04-15T20:57:28.706Z,86.90
2023-04-15T20:59:56.510Z,86.46
2023-04-15T21:02:24.710Z,86.82
2023-04-15T21:04:52.650Z,87.10
2023-04-15T21:07:21.801Z,87.51
2023-04-15T21:09:49.636Z,87.13
2023-04-15T21:12:17.457Z,87.35
2023-04-15T21:14:45.477Z,87.67
2023-04-15T21:17:13.291Z,88.19
2023-04-15T21:19:41.344Z,88.38
2023-04-15T21:22:09.120Z,88.75
2023-04-15T21:24:38.276Z,88.72
2023-04-15T21:27:06.354Z,89.63
2023-04-15T21:29:34.219Z,89.78
2023-04-15T21:32:02.069Z,90.20
2023-04-15T21:34:29.938Z,90.56
2023-04-15T21:36:57.709Z,91.26
2023-04-15T21:39:25.745Z,91.24
2023-04-15T21:41:54.989Z,91.66
2023-04-15T21:44:22.773Z,91.71
2023-04-15T21:46:51.002Z,91.59
2023-04-15T21:49:20.255Z,92.17
2023-04-15T21:51:48.531Z,92.48
2023-04-15T21:54:16.556Z,92.58
2023-04-15T21:56:44.385Z,92.48
2023-04-15T21:59:13.534Z,92.29
2023-04-15T22:01:41.336Z,92.67
2023-04-15T22:04:10.920Z,93.12
2023-04-15T22:06:39.392Z,92.88
2023-04-15T22:09:07.197Z,93.02
2023-04-15T22:11:35.005Z,93.50
2023-04-15T22:14:02.743Z,93.54
2023-04-15T22:16:31.948Z,93.58
2023-04-15T22:18:59.743Z,94.32
2023-04-15T22:21:27.847Z,94.58
2023-04-15T22:24:32.271Z,94.94
2023-04-15T22:26:43.646Z,94.45
2023-04-15T22:29:11.650Z,95.03
2023-04-15T22:31:40.845Z,95.12
2023-04-15T22:34:08.799Z,95.94
2023-04-15T22:36:36.620Z,96.38
2023-04-15T22:39:04.746Z,96.57
2023-04-15T22:41:32.689Z,97.17
2023-04-15T22:44:00.474Z,96.94
2023-04-15T22:46:28.255Z,97.26
2023-04-15T22:48:57.433Z,97.14
2023-04-15T22:51:26.926Z,97.45
2023-04-15T22:53:54.866Z,97.83
2023-04-15T22:56:23.525Z,98.01
2023-04-15T22:58:51.712Z,98.15
2023-04-15T23:01:20.781Z,98.42
2023-04-15T23:03:57.957Z,98.83
2023-04-15T23:06:34.638Z,99.32
2023-04-15T23:09:02.448Z,99.54
2023-04-15T23:11:30.308Z,99.79
2023-04-15T23:13:58.131Z,100.00
2023-04-15T23:16:26.038Z,99.96
2023-04-15T23:18:53.938Z,100.00
2023-04-15T23:21:22.216Z,100.00
2023-04-15T23:23:52.329Z,100.00
2023-04-15T23:26:20.109Z,100.00
2023-04-15T23:28:47.864Z,100.00
2023-04-15T23:31:15.619Z,100.00
2023-04-15T23:33:43.417Z,100.00
2023-04-15T23:36:11.191Z,100.00
2023-04-15T23:38:38.936Z,100.00
2023-04-15T23:41:08.870Z,100.00
2023-04-15T23:43:36.664Z,100.00
2023-04-15T23:46:04.496Z,100.00
2023-04-15T23:48:32.642Z,100.00
2023-04-15T23:51:01.566Z,100.00
2023-04-15T23:53:30.018Z,100.00
2023-04-15T23:55:57.923Z,100.00
2023-04-15T23:58:27.060Z,100.00
